Observation data for Paducah on 01/20/2019      Previous  Date  Next       Current Mesonet Observations  Soil Data  Daily Summary Page  Observations in Plain Language
KPAD 200600Z 15004KT M03/M07 A3034 RMK A01 T10271072  RH  071%=      5-min Rain = 0
KPAD 200605Z 16004KT M02/M07 A3035 RMK A01 T10231067  RH  072%=      5-min Rain = 0
KPAD 200610Z 18005KT M02/M07 A3034 RMK A01 T10231070  RH  070%=      5-min Rain = 0
KPAD 200615Z 19005KT M03/M07 A3033 RMK A01 T10281072  RH  072%=      5-min Rain = 0
KPAD 200620Z 18006KT M03/M07 A3033 RMK A01 T10341073  RH  074%=      5-min Rain = 0
KPAD 200625Z 17006KT M03/M07 A3033 RMK A01 T10331071  RH  076%=      5-min Rain = 0
KPAD 200630Z 17005KT M03/M07 A3034 RMK A01 T10311069  RH  075%=      5-min Rain = 0
KPAD 200635Z 18005KT M03/M07 A3034 RMK A01 T10281070  RH  073%=      5-min Rain = 0
KPAD 200640Z 20004KT M03/M07 A3035 RMK A01 T10271070  RH  072%=      5-min Rain = 0
KPAD 200645Z 20004KT M03/M07 A3036 RMK A01 T10271070  RH  072%=      5-min Rain = 0
KPAD 200650Z 18004KT M03/M07 A3035 RMK A01 T10271070  RH  073%=      5-min Rain = 0
KPAD 200655Z 16005KT M03/M07 A3033 RMK A01 T10291072  RH  072%=      5-min Rain = 0
KPAD 200700Z 18004KT M03/M07 A3033 RMK A01 T10291071  RH  073%=      5-min Rain = 0
KPAD 200705Z 17005KT M03/M07 A3033 RMK A01 T10301072  RH  073%=      5-min Rain = 0
KPAD 200710Z 18006KT M04/M08 A3033 RMK A01 T10351075  RH  074%=      5-min Rain = 0
KPAD 200715Z 18005KT M04/M08 A3033 RMK A01 T10381075  RH  076%=      5-min Rain = 0
KPAD 200720Z 18005KT M04/M07 A3033 RMK A01 T10361074  RH  075%=      5-min Rain = 0
KPAD 200725Z 17003KT M04/M07 A3033 RMK A01 T10381074  RH  076%=      5-min Rain = 0
KPAD 200730Z 19004KT M04/M07 A3033 RMK A01 T10361072  RH  076%=      5-min Rain = 0
KPAD 200735Z 19005KT M04/M07 A3033 RMK A01 T10351073  RH  075%=      5-min Rain = 0
KPAD 200740Z 19005KT M04/M08 A3033 RMK A01 T10391075  RH  076%=      5-min Rain = 0
KPAD 200745Z 19005KT M04/M08 A3033 RMK A01 T10391075  RH  076%=      5-min Rain = 0
KPAD 200750Z 20006KT M04/M08 A3033 RMK A01 T10401075  RH  076%=      5-min Rain = 0
KPAD 200755Z 21007KT M04/M07 A3034 RMK A01 T10401074  RH  077%=      5-min Rain = 0
KPAD 200800Z 22007KT M04/M07 A3034 RMK A01 T10401073  RH  078%=      5-min Rain = 0
KPAD 200805Z 21007KT M04/M07 A3034 RMK A01 T10411073  RH  078%=      5-min Rain = 0
KPAD 200810Z 21007KT M04/M08 A3034 RMK A01 T10421075  RH  078%=      5-min Rain = 0
KPAD 200815Z 21006KT M05/M08 A3034 RMK A01 T10451076  RH  079%=      5-min Rain = 0
KPAD 200820Z 20006KT M04/M07 A3034 RMK A01 T10441074  RH  080%=      5-min Rain = 0
KPAD 200825Z 20006KT M05/M08 A3033 RMK A01 T10471076  RH  080%=      5-min Rain = 0
KPAD 200830Z 20005KT M05/M08 A3033 RMK A01 T10471075  RH  081%=      5-min Rain = 0
KPAD 200835Z 20005KT M05/M07 A3033 RMK A01 T10451073  RH  081%=      5-min Rain = 0
KPAD 200840Z 19005KT M05/M07 A3034 RMK A01 T10451074  RH  080%=      5-min Rain = 0
KPAD 200845Z 19005KT M04/M07 A3034 RMK A01 T10441073  RH  080%=      5-min Rain = 0
KPAD 200850Z 19005KT M04/M08 A3034 RMK A01 T10441075  RH  079%=      5-min Rain = 0
KPAD 200855Z 19006KT M05/M08 A3034 RMK A01 T10471076  RH  080%=      5-min Rain = 0
KPAD 200900Z 18006KT M05/M08 A3034 RMK A01 T10471076  RH  080%=      5-min Rain = 0
KPAD 200905Z 18006KT M05/M08 A3033 RMK A01 T10461075  RH  080%=      5-min Rain = 0
KPAD 200910Z 17007KT M04/M07 A3033 RMK A01 T10441074  RH  080%=      5-min Rain = 0
KPAD 200915Z 18006KT M04/M07 A3033 RMK A01 T10431074  RH  079%=      5-min Rain = 0
KPAD 200920Z 18006KT M04/M08 A3033 RMK A01 T10441075  RH  079%=      5-min Rain = 0
KPAD 200925Z 19006KT M05/M08 A3034 RMK A01 T10481078  RH  079%=      5-min Rain = 0
KPAD 200930Z 20007KT M05/M08 A3034 RMK A01 T10501077  RH  081%=      5-min Rain = 0
KPAD 200935Z 19006KT M05/M08 A3034 RMK A01 T10501077  RH  082%=      5-min Rain = 0
KPAD 200940Z 19006KT M05/M08 A3034 RMK A01 T10521078  RH  082%=      5-min Rain = 0
KPAD 200945Z 19006KT M05/M08 A3034 RMK A01 T10521077  RH  082%=      5-min Rain = 0
KPAD 200950Z 19006KT M05/M08 A3033 RMK A01 T10531078  RH  083%=      5-min Rain = 0
KPAD 200955Z 20007KT M05/M08 A3033 RMK A01 T10521076  RH  083%=      5-min Rain = 0
KPAD 201000Z 19007KT M05/M08 A3033 RMK A01 T10521077  RH  083%=      5-min Rain = 0
KPAD 201005Z 20007KT M05/M08 A3032 RMK A01 T10541078  RH  083%=      5-min Rain = 0
KPAD 201010Z 20008KT M05/M08 A3032 RMK A01 T10541077  RH  084%=      5-min Rain = 0
KPAD 201015Z 21007KT M05/M07 A3032 RMK A01 T10511072  RH  085%=      5-min Rain = 0
KPAD 201020Z 21008KT M05/M07 A3032 RMK A01 T10481071  RH  084%=      5-min Rain = 0
KPAD 201025Z 21007KT M05/M07 A3032 RMK A01 T10471071  RH  083%=      5-min Rain = 0
KPAD 201030Z 21007KT M05/M07 A3032 RMK A01 T10481072  RH  083%=      5-min Rain = 0
KPAD 201035Z 21006KT M05/M07 A3032 RMK A01 T10491073  RH  083%=      5-min Rain = 0
KPAD 201040Z 21006KT M05/M08 A3032 RMK A01 T10511075  RH  083%=      5-min Rain = 0
KPAD 201045Z 20006KT M05/M08 A3032 RMK A01 T10521076  RH  083%=      5-min Rain = 0
KPAD 201050Z 20006KT M05/M08 A3031 RMK A01 T10541078  RH  083%=      5-min Rain = 0
KPAD 201055Z 20006KT M06/M08 A303 RMK A01 T10551077  RH  084%=      5-min Rain = 0
KPAD 201100Z 21007KT M06/M08 A303 RMK A01 T10551078  RH  084%=      5-min Rain = 0
KPAD 201105Z 21007KT M06/M08 A303 RMK A01 T10551076  RH  085%=      5-min Rain = 0
KPAD 201110Z 21006KT M06/M08 A3031 RMK A01 T10551076  RH  085%=      5-min Rain = 0
KPAD 201115Z 22006KT M05/M08 A3031 RMK A01 T10541075  RH  085%=      5-min Rain = 0
KPAD 201120Z 22006KT M05/M08 A3031 RMK A01 T10541075  RH  085%=      5-min Rain = 0
KPAD 201125Z 22007KT M05/M07 A3031 RMK A01 T10541074  RH  085%=      5-min Rain = 0
KPAD 201130Z 22006KT M05/M07 A303 RMK A01 T10531074  RH  085%=      5-min Rain = 0
KPAD 201135Z 22007KT M05/M07 A303 RMK A01 T10531073  RH  086%=      5-min Rain = 0
KPAD 201140Z 22007KT M05/M07 A3029 RMK A01 T10511072  RH  085%=      5-min Rain = 0
KPAD 201145Z 22007KT M05/M07 A3029 RMK A01 T10511072  RH  085%=      5-min Rain = 0
KPAD 201150Z 22008KT M05/M07 A303 RMK A01 T10501071  RH  085%=      5-min Rain = 0
KPAD 201155Z 21007KT M05/M07 A303 RMK A01 T10491071  RH  085%=      5-min Rain = 0
KPAD 201200Z 21007KT M05/M07 A3029 RMK A01 T10491072  RH  084%=      5-min Rain = 0
KPAD 201205Z 21007KT M05/M07 A3029 RMK A01 T10491072  RH  084%=      5-min Rain = 0
KPAD 201210Z 21008KT M05/M07 A3029 RMK A01 T10491071  RH  084%=      5-min Rain = 0
KPAD 201215Z 21007KT M05/M07 A3029 RMK A01 T10471070  RH  084%=      5-min Rain = 0
KPAD 201220Z 21007KT M05/M07 A3029 RMK A01 T10461069  RH  083%=      5-min Rain = 0
KPAD 201225Z 22007KT M05/M07 A3029 RMK A01 T10461069  RH  083%=      5-min Rain = 0
KPAD 201230Z 22006KT M05/M07 A3029 RMK A01 T10461070  RH  083%=      5-min Rain = 0
KPAD 201235Z 21006KT M05/M07 A3029 RMK A01 T10451070  RH  083%=      5-min Rain = 0
KPAD 201240Z 21006KT M04/M07 A3029 RMK A01 T10441069  RH  083%=      5-min Rain = 0
KPAD 201245Z 21006KT M04/M07 A3029 RMK A01 T10441069  RH  082%=      5-min Rain = 0
KPAD 201250Z 20005KT M04/M07 A3029 RMK A01 T10441070  RH  082%=      5-min Rain = 0
KPAD 201255Z 20005KT M04/M07 A303 RMK A01 T10441069  RH  083%=      5-min Rain = 0
KPAD 201300Z 20005KT M04/M07 A303 RMK A01 T10441069  RH  083%=      5-min Rain = 0
KPAD 201305Z 21006KT M05/M07 A303 RMK A01 T10451069  RH  083%=      5-min Rain = 0
KPAD 201310Z 20005KT M05/M07 A3029 RMK A01 T10461070  RH  083%=      5-min Rain = 0
KPAD 201315Z 21006KT M05/M07 A3029 RMK A01 T10471070  RH  084%=      5-min Rain = 0
KPAD 201320Z 21005KT M05/M07 A303 RMK A01 T10461069  RH  084%=      5-min Rain = 0
KPAD 201325Z 20005KT M05/M07 A303 RMK A01 T10471070  RH  084%=      5-min Rain = 0
KPAD 201330Z 20006KT M05/M07 A303 RMK A01 T10471069  RH  085%=      5-min Rain = 0
KPAD 201335Z 20006KT M05/M07 A3029 RMK A01 T10471069  RH  085%=      5-min Rain = 0
KPAD 201340Z 21006KT M05/M07 A3029 RMK A01 T10491069  RH  085%=      5-min Rain = 0
KPAD 201345Z 21006KT M05/M07 A3029 RMK A01 T10481068  RH  086%=      5-min Rain = 0
KPAD 201350Z 20006KT M05/M07 A3029 RMK A01 T10481068  RH  086%=      5-min Rain = 0
KPAD 201355Z 20006KT M05/M07 A3029 RMK A01 T10481067  RH  086%=      5-min Rain = 0
KPAD 201400Z 20006KT M05/M07 A3029 RMK A01 T10471066  RH  086%=      5-min Rain = 0
KPAD 201405Z 20007KT M05/M06 A3029 RMK A01 T10451064  RH  087%=      5-min Rain = 0
KPAD 201410Z 22008KT M04/M06 A3029 RMK A01 T10411061  RH  086%=      5-min Rain = 0
KPAD 201415Z 21008KT M04/M06 A3029 RMK A01 T10371060  RH  084%=      5-min Rain = 0
KPAD 201420Z 21009KT M03/M06 A3028 RMK A01 T10331058  RH  083%=      5-min Rain = 0
KPAD 201425Z 21011KT M03/M06 A3029 RMK A01 T10271056  RH  080%=      5-min Rain = 0
KPAD 201430Z 21010KT M02/M06 A3029 RMK A01 T10221056  RH  078%=      5-min Rain = 0
KPAD 201435Z 21011KT M02/M06 A3028 RMK A01 T10201057  RH  076%=      5-min Rain = 0
KPAD 201440Z 21010KT M02/M06 A3028 RMK A01 T10181056  RH  076%=      5-min Rain = 0
KPAD 201445Z 21010KT M02/M06 A3028 RMK A01 T10171055  RH  075%=      5-min Rain = 0
KPAD 201450Z 21009KT M01/M05 A3028 RMK A01 T10141053  RH  075%=      5-min Rain = 0
KPAD 201455Z 20009KT M01/M05 A3028 RMK A01 T10101053  RH  073%=      5-min Rain = 0
KPAD 201500Z 21010KT M01/M05 A3029 RMK A01 T10081053  RH  071%=      5-min Rain = 0
KPAD 201505Z 20009KT M01/M05 A3029 RMK A01 T10061053  RH  071%=      5-min Rain = 0
KPAD 201510Z 20010KT M00/M05 A3029 RMK A01 T10031052  RH  070%=      5-min Rain = 0
KPAD 201515Z 20010KT 00/05 A3029 RMK A01 T00000-50  RH  069%=      5-min Rain = 0
KPAD 201520Z 20009KT 00/M05 A3029 RMK A01 T00031047  RH  069%=      5-min Rain = 0
KPAD 201525Z 20011KT 00/M05 A3029 RMK A01 T00041049  RH  067%=      5-min Rain = 0
KPAD 201530Z 19011KT 00/M05 A3029 RMK A01 T00031051  RH  067%=      5-min Rain = 0
KPAD 201535Z 19011KT 00/M05 A3028 RMK A01 T00031051  RH  067%=      5-min Rain = 0
KPAD 201540Z 19010KT 00/M05 A3028 RMK A01 T00031050  RH  068%=      5-min Rain = 0
KPAD 201545Z 19012KT 00/M05 A3028 RMK A01 T00041050  RH  067%=      5-min Rain = 0
KPAD 201550Z 19011KT 01/M05 A3028 RMK A01 T00061050  RH  066%=      5-min Rain = 0
KPAD 201555Z 20013KT 01/M05 A3028 RMK A01 T00081050  RH  065%=      5-min Rain = 0
KPAD 201600Z 20014KT 01/M05 A3028 RMK A01 T00101050  RH  064%=      5-min Rain = 0
KPAD 201605Z 20013KT 01/M05 A3028 RMK A01 T00131049  RH  063%=      5-min Rain = 0
KPAD 201610Z 20012G17KT 02/M05 A3028 RMK A01 T00171050  RH  061%=      5-min Rain = 0
KPAD 201615Z 19014KT 02/M05 A3028 RMK A01 T00191054  RH  058%=      5-min Rain = 0
KPAD 201620Z 20014KT 02/M05 A3027 RMK A01 T00211053  RH  058%=      5-min Rain = 0
KPAD 201625Z 20015KT 02/M06 A3027 RMK A01 T00221055  RH  057%=      5-min Rain = 0
KPAD 201630Z 20014KT 03/M05 A3027 RMK A01 T00251053  RH  057%=      5-min Rain = 0
KPAD 201635Z 20012KT 03/M05 A3027 RMK A01 T00281051  RH  056%=      5-min Rain = 0
KPAD 201640Z 20013G18KT 03/M05 A3026 RMK A01 T00291050  RH  056%=      5-min Rain = 0
KPAD 201645Z 20013KT 03/M05 A3026 RMK A01 T00341047  RH  055%=      5-min Rain = 0
KPAD 201650Z 20014KT 04/M05 A3026 RMK A01 T00371049  RH  054%=      5-min Rain = 0
KPAD 201655Z 20016G21KT 04/M05 A3025 RMK A01 T00421048  RH  052%=      5-min Rain = 0
KPAD 201700Z 20017KT 04/M05 A3025 RMK A01 T00441049  RH  051%=      5-min Rain = 0
KPAD 201705Z 20015G21KT 05/M05 A3025 RMK A01 T00511047  RH  049%=      5-min Rain = 0
KPAD 201710Z 20017G22KT 06/M05 A3025 RMK A01 T00551046  RH  048%=      5-min Rain = 0
KPAD 201715Z 20018KT 06/M05 A3025 RMK A01 T00591046  RH  047%=      5-min Rain = 0
KPAD 201720Z 20018KT 06/M05 A3024 RMK A01 T00601046  RH  046%=      5-min Rain = 0
KPAD 201725Z 20015G21KT 06/M04 A3024 RMK A01 T00641043  RH  046%=      5-min Rain = 0
KPAD 201730Z 19017KT 07/M04 A3024 RMK A01 T00661044  RH  046%=      5-min Rain = 0
KPAD 201735Z 20014KT 07/M04 A3024 RMK A01 T00671043  RH  046%=      5-min Rain = 0
KPAD 201740Z 19015G21KT 07/M04 A3023 RMK A01 T00721040  RH  045%=      5-min Rain = 0
KPAD 201745Z 18014G19KT 08/M04 A3023 RMK A01 T00791040  RH  043%=      5-min Rain = 0
KPAD 201750Z 19013KT 08/M04 A3023 RMK A01 T00781039  RH  044%=      5-min Rain = 0
KPAD 201755Z 19012G19KT 08/M04 A3023 RMK A01 T00811037  RH  043%=      5-min Rain = 0
KPAD 201800Z 19014G19KT 09/M04 A3022 RMK A01 T00851037  RH  042%=      5-min Rain = 0
KPAD 201805Z 19013G18KT 09/M04 A3022 RMK A01 T00881035  RH  042%=      5-min Rain = 0
KPAD 201810Z 19016G21KT 09/M03 A3022 RMK A01 T00901034  RH  041%=      5-min Rain = 0
KPAD 201815Z 19016KT 09/M04 A3021 RMK A01 T00921035  RH  041%=      5-min Rain = 0
KPAD 201820Z 19015G21KT 09/M04 A3021 RMK A01 T00911036  RH  041%=      5-min Rain = 0
KPAD 201825Z 20015G22KT 09/M04 A3021 RMK A01 T00911036  RH  041%=      5-min Rain = 0
KPAD 201830Z 19014G19KT 09/M03 A3021 RMK A01 T00941034  RH  041%=      5-min Rain = 0
KPAD 201835Z 20015G20KT 10/M03 A3021 RMK A01 T00981034  RH  039%=      5-min Rain = 0
KPAD 201840Z 19015KT 10/M03 A302 RMK A01 T01001033  RH  039%=      5-min Rain = 0
KPAD 201845Z 19015KT 10/M03 A302 RMK A01 T01011034  RH  039%=      5-min Rain = 0
KPAD 201850Z 18014KT 10/M03 A302 RMK A01 T01011033  RH  039%=      5-min Rain = 0
KPAD 201855Z 18014KT 10/M03 A302 RMK A01 T01011032  RH  039%=      5-min Rain = 0
KPAD 201900Z 19012G18KT 11/M03 A3019 RMK A01 T01061030  RH  038%=      5-min Rain = 0
KPAD 201905Z 19014G19KT 11/M03 A3019 RMK A01 T01061031  RH  038%=      5-min Rain = 0
KPAD 201910Z 19014KT 11/M03 A3018 RMK A01 T01071030  RH  038%=      5-min Rain = 0
KPAD 201915Z 19014KT 11/M03 A3018 RMK A01 T01111029  RH  038%=      5-min Rain = 0
KPAD 201920Z 20013G19KT 12/M03 A3017 RMK A01 T01161029  RH  036%=      5-min Rain = 0
KPAD 201925Z 19013KT 12/M03 A3017 RMK A01 T01171029  RH  036%=      5-min Rain = 0
KPAD 201930Z 18011KT 12/M03 A3017 RMK A01 T01161026  RH  037%=      5-min Rain = 0
KPAD 201935Z 19013KT 12/M03 A3016 RMK A01 T01211027  RH  036%=      5-min Rain = 0
KPAD 201940Z 19013G18KT 12/M03 A3015 RMK A01 T01171029  RH  036%=      5-min Rain = 0
KPAD 201945Z 19014KT 12/M03 A3015 RMK A01 T01161029  RH  037%=      5-min Rain = 0
KPAD 201950Z 19012KT 12/M03 A3014 RMK A01 T01201025  RH  037%=      5-min Rain = 0
KPAD 201955Z 18013G18KT 12/M03 A3014 RMK A01 T01221027  RH  035%=      5-min Rain = 0
KPAD 202000Z 18011G18KT 12/M03 A3014 RMK A01 T01201026  RH  036%=      5-min Rain = 0
KPAD 202005Z 19011KT 12/M02 A3013 RMK A01 T01211024  RH  036%=      5-min Rain = 0
KPAD 202010Z 19012KT 13/M03 A3013 RMK A01 T01261026  RH  035%=      5-min Rain = 0
KPAD 202015Z 19013KT 12/M03 A3013 RMK A01 T01231026  RH  035%=      5-min Rain = 0
KPAD 202020Z 19011KT 13/M02 A3013 RMK A01 T01261024  RH  035%=      5-min Rain = 0
KPAD 202025Z 18013G19KT 13/M03 A3013 RMK A01 T01301027  RH  034%=      5-min Rain = 0
KPAD 202030Z 18011KT 12/M03 A3012 RMK A01 T01241027  RH  035%=      5-min Rain = 0
KPAD 202035Z 19013KT 12/M03 A3013 RMK A01 T01231026  RH  035%=      5-min Rain = 0
KPAD 202040Z 18011KT 12/M03 A3013 RMK A01 T01221027  RH  036%=      5-min Rain = 0
KPAD 202045Z 18013KT 13/M03 A3012 RMK A01 T01251027  RH  035%=      5-min Rain = 0
KPAD 202050Z 19012KT 12/M03 A3012 RMK A01 T01231029  RH  035%=      5-min Rain = 0
KPAD 202055Z 18012KT 12/M03 A3012 RMK A01 T01201028  RH  036%=      5-min Rain = 0
KPAD 202100Z 17010KT 13/M02 A3012 RMK A01 T01271022  RH  036%=      5-min Rain = 0
KPAD 202105Z 17010KT 13/M03 A3011 RMK A01 T01331025  RH  034%=      5-min Rain = 0
KPAD 202110Z 17012G17KT 13/M03 A301 RMK A01 T01331025  RH  033%=      5-min Rain = 0
KPAD 202115Z 16011KT 13/M02 A3011 RMK A01 T01281024  RH  035%=      5-min Rain = 0
KPAD 202120Z 17011KT 13/M02 A3011 RMK A01 T01331024  RH  034%=      5-min Rain = 0
KPAD 202125Z 17011KT 13/M03 A301 RMK A01 T01301025  RH  034%=      5-min Rain = 0
KPAD 202130Z 17011KT 13/M02 A301 RMK A01 T01261024  RH  036%=      5-min Rain = 0
KPAD 202135Z 17011KT 13/M02 A301 RMK A01 T01291021  RH  036%=      5-min Rain = 0
KPAD 202140Z 17011KT 13/M02 A3009 RMK A01 T01321020  RH  035%=      5-min Rain = 0
KPAD 202145Z 16011KT 13/M02 A3009 RMK A01 T01301021  RH  035%=      5-min Rain = 0
KPAD 202150Z 16011KT 13/M02 A3009 RMK A01 T01271020  RH  036%=      5-min Rain = 0
KPAD 202155Z 17011KT 13/M02 A3009 RMK A01 T01261018  RH  037%=      5-min Rain = 0
KPAD 202200Z 16012G17KT 13/M02 A3009 RMK A01 T01281016  RH  037%=      5-min Rain = 0
KPAD 202205Z 17013KT 13/M02 A3009 RMK A01 T01311016  RH  037%=      5-min Rain = 0
KPAD 202210Z 17013G18KT 14/M02 A3008 RMK A01 T01351015  RH  036%=      5-min Rain = 0
KPAD 202215Z 17013KT 14/M02 A3008 RMK A01 T01371017  RH  035%=      5-min Rain = 0
KPAD 202220Z 17013KT 14/M02 A3008 RMK A01 T01371017  RH  035%=      5-min Rain = 0
KPAD 202225Z 18012KT 14/M02 A3008 RMK A01 T01351016  RH  035%=      5-min Rain = 0
KPAD 202230Z 18012KT 14/M02 A3008 RMK A01 T01381017  RH  035%=      5-min Rain = 0
KPAD 202235Z 18011G16KT 14/M02 A3008 RMK A01 T01391017  RH  034%=      5-min Rain = 0
KPAD 202240Z 17012KT 14/M02 A3008 RMK A01 T01401015  RH  035%=      5-min Rain = 0
KPAD 202245Z 18012KT 14/M01 A3008 RMK A01 T01391014  RH  035%=      5-min Rain = 0
KPAD 202250Z 17011KT 14/M01 A3008 RMK A01 T01381014  RH  035%=      5-min Rain = 0
KPAD 202255Z 17011KT 14/M01 A3007 RMK A01 T01361013  RH  036%=      5-min Rain = 0
KPAD 202300Z 17010KT 14/M01 A3007 RMK A01 T01371013  RH  036%=      5-min Rain = 0
KPAD 202305Z 18011KT 14/M02 A3007 RMK A01 T01371015  RH  035%=      5-min Rain = 0
KPAD 202310Z 18010G15KT 14/M02 A3008 RMK A01 T01381018  RH  034%=      5-min Rain = 0
KPAD 202315Z 18011KT 14/M02 A3007 RMK A01 T01361020  RH  034%=      5-min Rain = 0
KPAD 202320Z 18010KT 14/M02 A3007 RMK A01 T01351020  RH  034%=      5-min Rain = 0
KPAD 202325Z 18009KT 13/M02 A3007 RMK A01 T01341019  RH  035%=      5-min Rain = 0
KPAD 202330Z 18009KT 13/M02 A3007 RMK A01 T01321018  RH  036%=      5-min Rain = 0
KPAD 202335Z 18009KT 13/M02 A3007 RMK A01 T01291018  RH  036%=      5-min Rain = 0
KPAD 202340Z 18009KT 13/M02 A3007 RMK A01 T01271017  RH  037%=      5-min Rain = 0
KPAD 202345Z 17008KT 12/M02 A3007 RMK A01 T01241017  RH  038%=      5-min Rain = 0
KPAD 202350Z 17008KT 12/M02 A3007 RMK A01 T01201015  RH  039%=      5-min Rain = 0
KPAD 202355Z 16008KT 12/M01 A3007 RMK A01 T01161012  RH  041%=      5-min Rain = 0
KPAD 210000Z 16008KT 11/M01 A3007 RMK A01 T01111010  RH  044%=      5-min Rain = 0
KPAD 210005Z 16008KT 11/M01 A3007 RMK A01 T01071008  RH  045%=      5-min Rain = 0
KPAD 210010Z 14007KT 10/M01 A3007 RMK A01 T01031006  RH  047%=      5-min Rain = 0
KPAD 210015Z 15007KT 10/M00 A3007 RMK A01 T00981004  RH  050%=      5-min Rain = 0
KPAD 210020Z 15007KT 09/M00 A3007 RMK A01 T00941002  RH  052%=      5-min Rain = 0
KPAD 210025Z 15007KT 09/M00 A3007 RMK A01 T00911002  RH  053%=      5-min Rain = 0
KPAD 210030Z 15007KT 09/M00 A3006 RMK A01 T00871002  RH  054%=      5-min Rain = 0
KPAD 210035Z 14007KT 08/M00 A3006 RMK A01 T00831002  RH  055%=      5-min Rain = 0
KPAD 210040Z 14007KT 08/M00 A3007 RMK A01 T00811002  RH  056%=      5-min Rain = 0
KPAD 210045Z 14007KT 08/M00 A3007 RMK A01 T00801002  RH  057%=      5-min Rain = 0
KPAD 210050Z 14007KT 08/M00 A3007 RMK A01 T00801001  RH  057%=      5-min Rain = 0
KPAD 210055Z 14008KT 08/M00 A3007 RMK A01 T00791001  RH  058%=      5-min Rain = 0
KPAD 210100Z 15007KT 08/M00 A3006 RMK A01 T00781001  RH  058%=      5-min Rain = 0
KPAD 210105Z 15007KT 08/M00 A3006 RMK A01 T00761002  RH  059%=      5-min Rain = 0
KPAD 210110Z 15006KT 07/M00 A3006 RMK A01 T00711003  RH  060%=      5-min Rain = 0
KPAD 210115Z 15007KT 07/M00 A3006 RMK A01 T00671003  RH  061%=      5-min Rain = 0
KPAD 210120Z 16006KT 06/M00 A3006 RMK A01 T00641004  RH  062%=      5-min Rain = 0
KPAD 210125Z 16006KT 06/M01 A3006 RMK A01 T00611005  RH  063%=      5-min Rain = 0
KPAD 210130Z 16005KT 05/M01 A3006 RMK A01 T00541007  RH  065%=      5-min Rain = 0
KPAD 210135Z 16006KT 05/M01 A3006 RMK A01 T00521006  RH  067%=      5-min Rain = 0
KPAD 210140Z 16005KT 05/M01 A3006 RMK A01 T00521005  RH  067%=      5-min Rain = 0
KPAD 210145Z 17005KT 05/M01 A3006 RMK A01 T00521005  RH  068%=      5-min Rain = 0
KPAD 210150Z 17006KT 05/M01 A3006 RMK A01 T00491006  RH  068%=      5-min Rain = 0
KPAD 210155Z 17006KT 05/M01 A3005 RMK A01 T00481006  RH  069%=      5-min Rain = 0
KPAD 210200Z 16007KT 05/M00 A3005 RMK A01 T00481004  RH  069%=      5-min Rain = 0
KPAD 210205Z 16007KT 05/M00 A3005 RMK A01 T00491003  RH  069%=      5-min Rain = 0
KPAD 210210Z 17008KT 05/M00 A3005 RMK A01 T00511002  RH  069%=      5-min Rain = 0
KPAD 210215Z 17008KT 05/M00 A3005 RMK A01 T00521001  RH  069%=      5-min Rain = 0
KPAD 210220Z 17008KT 05/00 A3004 RMK A01 T005400-0  RH  069%=      5-min Rain = 0
KPAD 210225Z 17007KT 06/00 A3004 RMK A01 T005500-0  RH  068%=      5-min Rain = 0
KPAD 210230Z 17007KT 06/M00 A3004 RMK A01 T00551001  RH  068%=      5-min Rain = 0
KPAD 210235Z 17007KT 05/M00 A3004 RMK A01 T00531002  RH  068%=      5-min Rain = 0
KPAD 210240Z 17007KT 05/M00 A3004 RMK A01 T00521003  RH  069%=      5-min Rain = 0
KPAD 210245Z 18007KT 05/M00 A3004 RMK A01 T00501004  RH  069%=      5-min Rain = 0
KPAD 210250Z 19008KT 05/M01 A3004 RMK A01 T00471005  RH  070%=      5-min Rain = 0
KPAD 210255Z 18008KT 05/M00 A3003 RMK A01 T00471003  RH  071%=      5-min Rain = 0
KPAD 210300Z 18007KT 05/M00 A3003 RMK A01 T00481003  RH  070%=      5-min Rain = 0
KPAD 210305Z 19008KT 05/M00 A3003 RMK A01 T00471003  RH  071%=      5-min Rain = 0
KPAD 210310Z 19009KT 04/M00 A3003 RMK A01 T00441004  RH  072%=      5-min Rain = 0
KPAD 210315Z 19009KT 04/M00 A3002 RMK A01 T00431004  RH  073%=      5-min Rain = 0
KPAD 210320Z 19009KT 04/M00 A3002 RMK A01 T00421004  RH  073%=      5-min Rain = 0
KPAD 210325Z 19009KT 04/M00 A3002 RMK A01 T00421002  RH  074%=      5-min Rain = 0
KPAD 210330Z 19010KT 04/M00 A3002 RMK A01 T00431001  RH  074%=      5-min Rain = 0
KPAD 210335Z 19010KT 04/00 A3001 RMK A01 T004400-0  RH  074%=      5-min Rain = 0
KPAD 210340Z 19010KT 04/00 A3001 RMK A01 T004400-0  RH  074%=      5-min Rain = 0
KPAD 210345Z 19010KT 04/00 A3001 RMK A01 T004400-0  RH  074%=      5-min Rain = 0
KPAD 210350Z 19010KT 04/00 A3001 RMK A01 T004400-0  RH  074%=      5-min Rain = 0
KPAD 210355Z 19010KT 04/00 A3001 RMK A01 T004400-0  RH  074%=      5-min Rain = 0
KPAD 210400Z 19010KT 04/M00 A3001 RMK A01 T00421001  RH  074%=      5-min Rain = 0
KPAD 210405Z 19010KT 04/M00 A3001 RMK A01 T00411001  RH  075%=      5-min Rain = 0
KPAD 210410Z 19010KT 04/M00 A3001 RMK A01 T00421001  RH  075%=      5-min Rain = 0
KPAD 210415Z 19010KT 04/00 A3001 RMK A01 T004200-0  RH  075%=      5-min Rain = 0
KPAD 210420Z 19010KT 04/00 A30 RMK A01 T00420000  RH  075%=      5-min Rain = 0
KPAD 210425Z 19010KT 04/00 A30 RMK A01 T00420001  RH  075%=      5-min Rain = 0
KPAD 210430Z 19010KT 04/00 A30 RMK A01 T00420001  RH  076%=      5-min Rain = 0
KPAD 210435Z 19010KT 04/00 A30 RMK A01 T00420001  RH  076%=      5-min Rain = 0
KPAD 210440Z 19010KT 04/00 A30 RMK A01 T00410001  RH  076%=      5-min Rain = 0
KPAD 210445Z 19010KT 04/00 A30 RMK A01 T00410002  RH  076%=      5-min Rain = 0
KPAD 210450Z 19011KT 04/00 A30 RMK A01 T00390000  RH  077%=      5-min Rain = 0
KPAD 210455Z 19011KT 04/00 A30 RMK A01 T003600-0  RH  078%=      5-min Rain = 0
KPAD 210500Z 19011KT 04/00 A30 RMK A01 T003600-0  RH  078%=      5-min Rain = 0
KPAD 210505Z 19011KT 04/00 A30 RMK A01 T00350000  RH  079%=      5-min Rain = 0
KPAD 210510Z 19011KT 04/00 A30 RMK A01 T00360001  RH  079%=      5-min Rain = 0
KPAD 210515Z 19012KT 04/00 A30 RMK A01 T00360000  RH  079%=      5-min Rain = 0
KPAD 210520Z 19012KT 04/00 A30 RMK A01 T00350001  RH  079%=      5-min Rain = 0
KPAD 210525Z 19011KT 03/00 A30 RMK A01 T00340000  RH  080%=      5-min Rain = 0
KPAD 210530Z 19011KT 03/00 A30 RMK A01 T003200-0  RH  080%=      5-min Rain = 0
KPAD 210535Z 19010KT 03/M00 A30 RMK A01 T00311001  RH  081%=      5-min Rain = 0
KPAD 210540Z 20010KT 03/00 A30 RMK A01 T003100-0  RH  081%=      5-min Rain = 0
KPAD 210545Z 20011KT 03/00 A30 RMK A01 T00310001  RH  081%=      5-min Rain = 0
KPAD 210550Z 20011KT 03/00 A30 RMK A01 T00320001  RH  081%=      5-min Rain = 0
KPAD 210555Z 20011KT 03/00 A30 RMK A01 T00310001  RH  081%=      5-min Rain = 0

Page generated in 0.0093 seconds.